Time;durP1;ratioP1;P1;durP2;ratioP2;P2;SDS_P1;SDS_P2;PMS_P1;PMS_P2;Temp;Humidity;BMP_temperature;BMP_pressure;BME280_temperature;BME280_humidity;BME280_pressure;Samples;Min_cycle;Max_cycle;Signal;HPM_P1;HPM_P2
2022/12/18 00:00:00;;;;;;;11.97;5.77;;;-8.40;60.90;-9.80;96858.00;;;;5035261;28;20193;-59
2022/12/18 00:02:29;;;;;;;4.67;3.97;;;-8.20;61.70;-9.70;96842.00;;;;5017378;28;20228;-59
2022/12/18 00:04:56;;;;;;;4.90;4.40;;;-8.30;62.20;-9.70;96856.00;;;;5035217;28;20199;-58
2022/12/18 00:07:23;;;;;;;14.70;6.37;;;-8.20;62.00;-9.70;96850.00;;;;5035172;28;20660;-59
2022/12/18 00:09:50;;;;;;;5.80;4.80;;;-8.20;61.90;-9.60;96851.00;;;;5035055;28;20558;-58
2022/12/18 00:12:17;;;;;;;9.60;4.40;;;-8.20;61.90;-9.90;96849.00;;;;5034921;28;20214;-58
2022/12/18 00:14:47;;;;;;;5.37;4.20;;;-8.30;61.00;-9.90;96853.00;;;;5034987;28;20247;-58
2022/12/18 00:17:14;;;;;;;3.87;3.57;;;-8.40;61.00;-10.10;96861.00;;;;5034841;28;20223;-59
2022/12/18 00:19:42;;;;;;;3.87;3.53;;;-8.50;60.60;-9.90;96855.00;;;;5035171;28;20191;-58
2022/12/18 00:22:09;;;;;;;4.67;4.27;;;-8.50;61.30;-9.80;96843.00;;;;5034680;28;20752;-59
2022/12/18 00:24:36;;;;;;;5.37;3.57;;;-8.50;61.30;-9.80;96850.00;;;;5035403;28;20208;-59
2022/12/18 00:27:03;;;;;;;3.17;2.93;;;-8.40;61.10;-9.80;96860.00;;;;5034988;28;20528;-59
2022/12/18 00:29:30;;;;;;;6.10;4.63;;;-8.40;61.20;-9.90;96866.00;;;;5035427;28;20655;-58
2022/12/18 00:31:57;;;;;;;3.37;3.07;;;-8.40;61.00;-9.90;96856.00;;;;5034787;28;20207;-59
2022/12/18 00:34:24;;;;;;;4.67;4.23;;;-8.40;60.60;-10.00;96867.00;;;;5034628;28;20194;-59
2022/12/18 00:36:53;;;;;;;5.30;4.77;;;-8.50;60.40;-10.10;96869.00;;;;5016702;28;20742;-58
2022/12/18 00:39:20;;;;;;;8.37;4.93;;;-8.60;60.80;-10.20;96855.00;;;;5034397;28;20653;-58
2022/12/18 00:44:32;;;;;;;4.67;3.73;;;-8.60;61.10;-10.10;96865.00;;;;5017134;28;20206;-59
2022/12/18 00:46:59;;;;;;;5.27;4.27;;;-8.50;60.90;-10.00;96865.00;;;;5034618;28;20196;-58
2022/12/18 00:49:26;;;;;;;7.27;4.87;;;-8.60;60.50;-10.10;96866.00;;;;5034299;28;20246;-58
2022/12/18 00:51:57;;;;;;;9.17;4.87;;;-8.60;60.10;-10.10;96871.00;;;;5034073;28;20215;-58
2022/12/18 00:54:24;;;;;;;5.30;3.77;;;-8.70;60.30;-10.20;96859.00;;;;5034322;28;20191;-58
2022/12/18 00:56:51;;;;;;;16.83;5.80;;;-8.70;60.30;-10.30;96855.00;;;;5034125;28;20295;-58
2022/12/18 00:59:19;;;;;;;4.63;2.37;;;-8.80;60.60;-10.30;96864.00;;;;5034097;28;20258;-58
2022/12/18 01:01:47;;;;;;;3.43;3.13;;;-8.70;61.20;-10.20;96870.00;;;;5034032;28;20212;-59
2022/12/18 01:04:14;;;;;;;7.43;3.90;;;-8.80;61.10;-10.20;96866.00;;;;5034990;28;20195;-58
2022/12/18 01:06:42;;;;;;;3.50;3.20;;;-8.70;61.30;-10.30;96853.00;;;;5033927;28;20193;-58
2022/12/18 01:09:10;;;;;;;6.47;5.27;;;-8.80;60.70;-10.30;96863.00;;;;5033868;28;20207;-58
2022/12/18 01:11:37;;;;;;;8.73;4.20;;;-8.90;61.30;-10.30;96868.00;;;;5033832;28;20574;-59
2022/12/18 01:14:04;;;;;;;7.13;4.60;;;-8.80;60.90;-10.10;96867.00;;;;5033860;28;20203;-58
2022/12/18 01:16:31;;;;;;;5.37;4.37;;;-8.70;61.00;-10.30;96861.00;;;;5033744;28;20265;-58
2022/12/18 01:18:58;;;;;;;4.20;3.90;;;-8.80;60.70;-10.20;96869.00;;;;5033747;28;20264;-58
2022/12/18 01:21:25;;;;;;;5.97;3.60;;;-8.70;60.90;-10.20;96852.00;;;;5034242;28;20223;-58
2022/12/18 01:23:54;;;;;;;7.10;2.93;;;-8.80;61.10;-10.10;96851.00;;;;5016008;28;20274;-58
2022/12/18 01:26:24;;;;;;;5.03;3.67;;;-8.70;61.50;-10.00;96852.00;;;;5033596;28;20199;-58
2022/12/18 01:28:51;;;;;;;5.33;4.13;;;-8.60;61.50;-9.90;96845.00;;;;5033838;28;20602;-58
2022/12/18 01:31:21;;;;;;;9.93;4.07;;;-8.50;60.70;-9.90;96860.00;;;;5033531;28;20222;-59
2022/12/18 01:33:52;;;;;;;4.80;3.87;;;-8.50;61.00;-9.80;96848.00;;;;5033944;28;20192;-58
2022/12/18 01:36:22;;;;;;;4.90;3.60;;;-8.40;61.40;-9.80;96858.00;;;;5033409;28;20203;-58
2022/12/18 01:38:50;;;;;;;5.13;4.67;;;-8.40;61.30;-9.90;96863.00;;;;5034234;28;20180;-59
2022/12/18 01:41:20;;;;;;;6.87;5.27;;;-8.40;60.40;-10.00;96868.00;;;;5034427;28;20222;-58
2022/12/18 01:43:53;;;;;;;3.73;3.40;;;-8.50;60.40;-10.00;96857.00;;;;5034013;28;20184;-58
2022/12/18 01:46:27;;;;;;;2.93;2.03;;;-8.60;59.90;-10.20;96863.00;;;;5033606;28;20226;-59
2022/12/18 01:49:00;;;;;;;5.30;4.80;;;-8.60;59.50;-10.00;96852.00;;;;5033333;28;20239;-58
2022/12/18 01:51:29;;;;;;;14.27;3.63;;;-8.60;59.80;-10.10;96859.00;;;;5033442;28;20218;-58
2022/12/18 01:53:58;;;;;;;4.60;3.07;;;-8.50;60.20;-10.10;96853.00;;;;5033399;28;20190;-58
2022/12/18 01:56:25;;;;;;;4.47;3.57;;;-8.50;60.00;-10.20;96858.00;;;;5033135;28;20195;-58
2022/12/18 01:59:02;;;;;;;10.47;3.53;;;-8.70;59.60;-10.30;96853.00;;;;5033473;28;20302;-59
2022/12/18 02:01:32;;;;;;;6.90;4.87;;;-8.80;59.30;-10.20;96867.00;;;;5033349;28;20552;-59
2022/12/18 02:04:22;;;;;;;3.10;2.80;;;-8.70;59.50;-10.00;96863.00;;;;5033214;28;20189;-59
2022/12/18 02:06:58;;;;;;;4.63;3.20;;;-8.60;60.30;-9.90;96852.00;;;;5033096;28;20204;-58
2022/12/18 02:09:35;;;;;;;4.63;2.97;;;-8.50;61.50;-10.00;96871.00;;;;5033164;28;20188;-59
2022/12/18 02:12:16;;;;;;;4.20;3.50;;;-8.50;60.30;-10.10;96856.00;;;;5033013;28;20233;-58
2022/12/18 02:14:51;;;;;;;2.40;2.30;;;-8.60;59.70;-10.20;96856.00;;;;5033860;28;20645;-59
2022/12/18 02:17:22;;;;;;;3.63;3.37;;;-8.70;59.30;-10.30;96852.00;;;;5033001;28;20213;-58
2022/12/18 02:20:10;;;;;;;7.90;5.30;;;-8.80;58.90;-10.20;96860.00;;;;5033018;28;20185;-58
2022/12/18 02:23:03;;;;;;;4.00;3.70;;;-8.80;59.60;-10.20;96867.00;;;;5033562;28;20304;-59
2022/12/18 02:25:53;;;;;;;4.47;3.00;;;-8.80;59.70;-10.30;96854.00;;;;5029840;28;20548;-58
2022/12/18 02:28:26;;;;;;;3.60;3.13;;;-8.80;59.60;-10.30;96871.00;;;;5033702;28;20189;-58
2022/12/18 02:30:59;;;;;;;4.37;4.07;;;-8.80;59.60;-10.40;96867.00;;;;5032979;28;20213;-59
2022/12/18 02:33:29;;;;;;;2.63;2.43;;;-8.90;59.70;-10.20;96840.00;;;;5032864;28;20184;-58
2022/12/18 02:35:59;;;;;;;3.57;3.03;;;-8.80;60.40;-10.30;96869.00;;;;5032745;28;20543;-58
2022/12/18 02:38:27;;;;;;;7.77;4.27;;;-8.80;60.40;-10.20;96845.00;;;;5032744;28;20233;-58
2022/12/18 02:40:57;;;;;;;3.67;2.97;;;-8.80;59.70;-10.20;96862.00;;;;5033175;28;20212;-59
2022/12/18 02:43:24;;;;;;;2.83;2.47;;;-8.60;60.30;-10.30;96857.00;;;;5033148;28;20191;-58
2022/12/18 02:45:57;;;;;;;6.30;3.67;;;-8.80;60.20;-10.30;96866.00;;;;5032708;28;20197;-59
2022/12/18 02:48:31;;;;;;;1.90;1.80;;;-8.80;60.60;-10.20;96859.00;;;;5033030;28;20287;-58
2022/12/18 02:51:09;;;;;;;3.00;2.80;;;-8.80;61.70;-10.20;96867.00;;;;5033053;28;20290;-60
2022/12/18 02:53:45;;;;;;;3.17;2.80;;;-8.70;62.00;-10.20;96861.00;;;;5032725;28;20175;-58
2022/12/18 02:56:21;;;;;;;6.07;4.33;;;-8.80;62.50;-10.00;96858.00;;;;5014959;28;20199;-59
2022/12/18 02:58:59;;;;;;;2.50;2.30;;;-8.70;63.40;-9.90;96860.00;;;;5032881;28;20536;-59
2022/12/18 03:01:37;;;;;;;2.40;2.20;;;-8.50;63.40;-10.10;96856.00;;;;5033068;28;20303;-58
2022/12/18 03:04:12;;;;;;;5.63;2.83;;;-8.50;62.50;-10.20;96830.00;;;;5014935;28;20217;-58
2022/12/18 03:06:47;;;;;;;15.47;3.07;;;-8.70;61.60;-10.20;96858.00;;;;5032575;28;20182;-58
2022/12/18 03:09:20;;;;;;;2.23;2.13;;;-8.70;61.90;-10.10;96841.00;;;;5032612;28;20259;-58
2022/12/18 03:14:48;;;;;;;2.33;2.13;;;-8.70;62.10;-10.30;96868.00;;;;5032773;28;20186;-59
2022/12/18 03:17:20;;;;;;;2.77;2.53;;;-8.80;62.40;-10.20;96875.00;;;;5034405;28;20252;-58
2022/12/18 03:19:49;;;;;;;3.13;2.93;;;-8.80;63.10;-10.30;96854.00;;;;5036053;28;20634;-58
2022/12/18 03:22:18;;;;;;;2.70;2.13;;;-8.80;63.00;-10.40;96869.00;;;;5036536;28;20216;-58
2022/12/18 03:24:49;;;;;;;2.30;2.17;;;-8.90;63.10;-10.40;96872.00;;;;5035898;28;20277;-59
2022/12/18 03:27:21;;;;;;;3.57;3.27;;;-8.90;63.30;-10.40;96869.00;;;;5036149;28;20623;-58
2022/12/18 03:29:54;;;;;;;4.13;2.77;;;-8.90;63.10;-10.80;96887.00;;;;5035891;28;20534;-58
2022/12/18 03:32:29;;;;;;;3.17;2.93;;;-9.10;62.40;-10.70;96880.00;;;;5036601;28;20571;-58
2022/12/18 03:35:03;;;;;;;2.90;2.30;;;-9.20;63.30;-10.70;96876.00;;;;5036052;28;20187;-58
2022/12/18 03:37:34;;;;;;;2.77;2.43;;;-9.20;63.40;-10.60;96872.00;;;;5035637;28;20266;-58
2022/12/18 03:40:01;;;;;;;3.30;3.00;;;-9.10;64.10;-10.40;96877.00;;;;5035658;28;20246;-58
2022/12/18 03:42:36;;;;;;;4.93;3.87;;;-9.00;66.10;-10.10;96871.00;;;;5035982;28;20758;-58
2022/12/18 03:45:11;;;;;;;2.60;2.40;;;-8.80;69.80;-9.80;96883.00;;;;5035597;28;20190;-58
2022/12/18 03:47:52;;;;;;;4.53;2.73;;;-8.50;71.60;-10.00;96875.00;;;;5035701;28;20230;-58
2022/12/18 03:50:24;;;;;;;5.87;3.93;;;-8.50;69.50;-10.10;96858.00;;;;5035695;28;20182;-58
2022/12/18 03:53:00;;;;;;;2.13;2.00;;;-8.60;68.10;-10.10;96869.00;;;;5036391;28;20636;-58
2022/12/18 03:55:33;;;;;;;2.87;2.43;;;-8.60;69.00;-9.90;96877.00;;;;5035402;28;20655;-58
2022/12/18 03:58:06;;;;;;;4.23;2.90;;;-8.50;70.30;-9.80;96873.00;;;;5035654;28;20190;-58
2022/12/18 04:00:35;;;;;;;5.03;3.13;;;-8.40;70.60;-10.00;96861.00;;;;5036164;28;20564;-58
2022/12/18 04:03:05;;;;;;;2.90;2.60;;;-8.50;69.40;-10.00;96870.00;;;;5019071;28;20212;-58
2022/12/18 04:05:36;;;;;;;4.50;3.23;;;-8.50;69.30;-10.10;96871.00;;;;5035285;28;20195;-58
2022/12/18 04:08:05;;;;;;;7.90;3.17;;;-8.60;68.60;-10.20;96876.00;;;;5035408;28;20202;-58
2022/12/18 04:10:32;;;;;;;4.67;2.57;;;-8.70;68.60;-10.10;96872.00;;;;5035248;28;20242;-58
2022/12/18 04:13:01;;;;;;;3.63;3.33;;;-8.60;69.00;-9.80;96873.00;;;;5035710;28;20193;-58
2022/12/18 04:15:28;;;;;;;5.50;3.60;;;-8.50;70.70;-9.80;96877.00;;;;5035439;28;20574;-58
2022/12/18 04:17:55;;;;;;;3.20;3.00;;;-8.40;71.60;-9.80;96871.00;;;;5035465;28;20244;-58
2022/12/18 04:20:22;;;;;;;2.00;1.90;;;-8.40;72.30;-9.80;96874.00;;;;5034793;28;20253;-58
2022/12/18 04:22:49;;;;;;;2.07;1.87;;;-8.30;74.90;-9.70;96876.00;;;;5035305;28;20195;-58
2022/12/18 04:25:16;;;;;;;2.87;2.47;;;-8.30;79.10;-9.70;96861.00;;;;5034792;28;20192;-58
2022/12/18 04:27:43;;;;;;;1.90;1.80;;;-8.20;80.90;-9.60;96885.00;;;;5034689;28;20684;-59
2022/12/18 04:30:12;;;;;;;4.50;2.33;;;-8.20;82.20;-9.60;96870.00;;;;5035176;28;20191;-58
2022/12/18 04:32:39;;;;;;;3.17;2.90;;;-8.20;83.30;-9.50;96866.00;;;;5034972;28;20678;-58
2022/12/18 04:35:10;;;;;;;2.20;2.03;;;-8.10;84.00;-9.50;96868.00;;;;5035000;28;20192;-58
2022/12/18 04:37:37;;;;;;;2.03;1.93;;;-8.10;84.30;-9.50;96862.00;;;;5035152;28;20180;-58
2022/12/18 04:40:05;;;;;;;1.67;1.57;;;-8.00;84.90;-9.40;96857.00;;;;5034777;28;20598;-59
2022/12/18 04:42:32;;;;;;;2.87;2.47;;;-8.00;85.30;-9.40;96864.00;;;;5034406;28;20223;-58
2022/12/18 04:44:59;;;;;;;2.80;2.53;;;-8.00;85.40;-9.30;96868.00;;;;5034885;28;20709;-58
2022/12/18 04:47:28;;;;;;;3.67;3.27;;;-7.90;85.90;-9.20;96870.00;;;;5034828;28;20269;-58
2022/12/18 04:49:55;;;;;;;3.63;3.33;;;-7.90;86.30;-9.00;96871.00;;;;5034770;28;20204;-59
2022/12/18 04:52:22;;;;;;;2.70;2.50;;;-7.70;88.30;-9.00;96867.00;;;;5034194;28;20239;-58
2022/12/18 04:54:49;;;;;;;2.23;2.13;;;-7.60;88.50;-9.00;96872.00;;;;5034230;28;20188;-58
2022/12/18 04:57:17;;;;;;;2.50;2.23;;;-7.60;88.70;-8.90;96869.00;;;;5034428;28;20575;-58
2022/12/18 04:59:45;;;;;;;2.63;2.43;;;-7.40;89.50;-8.90;96886.00;;;;5034131;28;20203;-58
2022/12/18 05:02:12;;;;;;;4.07;3.57;;;-7.50;90.20;-8.80;96870.00;;;;5034637;28;20214;-58
2022/12/18 05:04:40;;;;;;;3.50;2.90;;;-7.30;92.20;-8.70;96881.00;;;;5034795;28;20618;-58
2022/12/18 05:07:07;;;;;;;7.27;4.50;;;-7.30;93.20;-8.60;96885.00;;;;5034098;28;20663;-59
2022/12/18 05:09:34;;;;;;;3.00;2.77;;;-7.20;91.20;-8.70;96882.00;;;;5034184;28;20216;-58
2022/12/18 05:12:01;;;;;;;2.90;2.50;;;-7.30;90.20;-8.60;96870.00;;;;5034142;28;20208;-58
2022/12/18 05:14:29;;;;;;;6.37;4.93;;;-7.30;89.80;-8.60;96887.00;;;;5034169;28;20270;-58
2022/12/18 05:16:56;;;;;;;5.67;3.27;;;-7.30;89.40;-8.70;96885.00;;;;5034109;28;20197;-58
2022/12/18 05:19:23;;;;;;;3.50;2.73;;;-7.30;88.90;-8.80;96870.00;;;;5034196;28;20276;-59
2022/12/18 05:21:51;;;;;;;6.47;3.70;;;-7.30;88.90;-8.90;96870.00;;;;5034012;28;20537;-59
2022/12/18 05:24:18;;;;;;;8.37;3.30;;;-7.50;89.10;-8.80;96870.00;;;;5033692;28;20192;-58
2022/12/18 05:26:45;;;;;;;3.40;2.57;;;-7.40;89.50;-8.70;96881.00;;;;5034351;28;20200;-58
2022/12/18 05:29:13;;;;;;;4.40;3.17;;;-7.30;89.30;-8.60;96873.00;;;;5034226;28;20227;-58
2022/12/18 05:31:40;;;;;;;2.93;2.73;;;-7.30;89.60;-8.70;96867.00;;;;5033607;28;20216;-58
2022/12/18 05:34:07;;;;;;;3.47;3.17;;;-7.30;89.30;-8.60;96871.00;;;;5033575;28;20319;-59
2022/12/18 05:36:34;;;;;;;3.80;3.53;;;-7.30;89.50;-8.60;96867.00;;;;5033673;28;20189;-59
2022/12/18 05:39:02;;;;;;;4.03;3.30;;;-7.20;89.30;-8.60;96879.00;;;;5033328;28;20201;-58
2022/12/18 05:41:29;;;;;;;8.90;3.07;;;-7.20;89.80;-8.50;96878.00;;;;5033860;28;20262;-58
2022/12/18 05:43:56;;;;;;;5.20;3.33;;;-7.10;90.90;-8.50;96871.00;;;;5033436;28;20185;-59
2022/12/18 05:46:24;;;;;;;3.60;2.60;;;-7.10;91.00;-8.40;96857.00;;;;5033499;28;20197;-58
2022/12/18 05:48:51;;;;;;;3.47;2.93;;;-7.10;91.50;-8.30;96857.00;;;;5033324;28;20557;-59
2022/12/18 05:51:21;;;;;;;3.27;2.80;;;-6.90;92.00;-8.10;96863.00;;;;5033591;28;20231;-58
2022/12/18 05:53:48;;;;;;;4.47;2.93;;;;;-8.20;96864.00;;;;5033503;28;20652;-59
2022/12/18 05:56:21;;;;;;;2.30;2.20;;;-6.80;90.50;-8.20;96860.00;;;;5033227;28;20193;-58
2022/12/18 05:58:51;;;;;;;3.40;3.13;;;-6.80;91.30;-8.20;96871.00;;;;5033577;28;20173;-59
2022/12/18 06:01:23;;;;;;;7.27;4.60;;;-6.80;91.30;-8.10;96865.00;;;;5033803;28;20213;-58
2022/12/18 06:03:50;;;;;;;13.30;4.53;;;-6.70;91.70;-8.00;96860.00;;;;5033507;28;20181;-58
2022/12/18 06:06:20;;;;;;;15.20;3.83;;;-6.60;91.60;-8.00;96877.00;;;;5033126;28;20189;-58
2022/12/18 06:08:48;;;;;;;5.00;4.00;;;-6.60;91.30;-7.90;96876.00;;;;5033007;28;20231;-59
2022/12/18 06:11:21;;;;;;;6.40;3.27;;;-6.50;91.40;-7.90;96880.00;;;;5033427;28;20270;-58
2022/12/18 06:13:52;;;;;;;4.07;3.77;;;-6.50;91.20;-7.90;96883.00;;;;5033556;28;20524;-59
2022/12/18 06:16:19;;;;;;;5.33;3.20;;;-6.50;91.10;-7.80;96886.00;;;;5033005;28;20691;-58
2022/12/18 06:18:46;;;;;;;20.93;3.97;;;-6.50;91.30;-7.80;96891.00;;;;5033100;28;20197;-59
2022/12/18 06:21:13;;;;;;;2.87;2.67;;;-6.40;91.40;-7.80;96897.00;;;;5033450;28;20274;-59
2022/12/18 06:23:40;;;;;;;7.23;4.27;;;-6.40;91.70;-7.60;96888.00;;;;5033185;28;20201;-59
2022/12/18 06:26:09;;;;;;;2.00;1.83;;;-6.30;91.90;-7.60;96899.00;;;;5033053;28;20247;-59
2022/12/18 06:28:38;;;;;;;2.53;2.37;;;-6.30;91.70;-7.60;96907.00;;;;5032991;28;20220;-58
2022/12/18 06:31:06;;;;;;;3.10;2.90;;;-6.30;92.30;-7.70;96901.00;;;;5033199;28;20209;-59
2022/12/18 06:33:34;;;;;;;4.03;3.53;;;-6.30;92.40;-7.70;96897.00;;;;5033324;28;20197;-59
2022/12/18 06:36:04;;;;;;;4.97;4.33;;;-6.30;93.30;-7.70;96902.00;;;;5032792;28;20193;-59
2022/12/18 06:38:35;;;;;;;4.57;3.73;;;-6.30;93.90;-7.60;96907.00;;;;5032817;28;20664;-59
2022/12/18 06:41:08;;;;;;;4.27;3.30;;;-6.30;94.20;-7.60;96916.00;;;;5033083;28;20216;-59
2022/12/18 06:43:35;;;;;;;3.60;2.60;;;-6.20;94.00;-7.60;96906.00;;;;5033320;28;20287;-59
2022/12/18 06:46:05;;;;;;;4.67;4.00;;;-6.30;93.70;-7.50;96912.00;;;;5032960;28;20279;-58
2022/12/18 06:48:33;;;;;;;5.70;3.40;;;-6.20;93.50;-7.50;96913.00;;;;5032944;28;20224;-59
2022/12/18 06:51:00;;;;;;;4.67;4.17;;;-6.20;93.60;-7.40;96917.00;;;;5032784;28;20263;-58
2022/12/18 06:53:28;;;;;;;4.40;3.80;;;-6.20;93.60;-7.30;96901.00;;;;5037125;28;20199;-59
2022/12/18 06:56:01;;;;;;;4.07;3.63;;;-6.00;93.10;-7.60;96918.00;;;;5036468;28;20197;-58
2022/12/18 06:58:29;;;;;;;4.63;3.40;;;-6.10;91.50;-7.60;96923.00;;;;5036623;28;20247;-58
2022/12/18 07:01:02;;;;;;;19.97;5.60;;;-6.20;91.90;-7.80;96928.00;;;;5036343;28;20275;-59
2022/12/18 07:03:30;;;;;;;3.47;3.03;;;-6.30;91.80;-7.80;96926.00;;;;5036813;28;20236;-58
2022/12/18 07:05:57;;;;;;;5.30;3.00;;;-6.40;92.80;-7.70;96923.00;;;;5036497;28;20192;-59
2022/12/18 07:08:24;;;;;;;4.03;3.73;;;-6.40;93.20;-7.70;96924.00;;;;5036234;28;20220;-58
2022/12/18 07:10:52;;;;;;;9.83;3.67;;;-6.40;93.70;-7.70;96928.00;;;;5036194;28;20220;-58
2022/12/18 07:13:20;;;;;;;2.63;2.43;;;;;-7.60;96933.00;;;;5036286;28;20189;-59
2022/12/18 07:15:47;;;;;;;2.90;2.70;;;-6.40;99.90;-7.50;96939.00;;;;5036178;28;20231;-58
2022/12/18 07:18:14;;;;;;;7.60;2.90;;;-6.20;95.40;-7.40;96935.00;;;;5036343;28;20196;-59
2022/12/18 07:20:42;;;;;;;8.67;4.47;;;-6.20;95.10;-7.40;96936.00;;;;5035919;28;20717;-58
2022/12/18 07:23:09;;;;;;;2.93;2.73;;;-6.10;95.10;-7.30;96931.00;;;;5036731;28;20193;-59
2022/12/18 07:25:37;;;;;;;5.07;2.80;;;-6.00;95.10;-7.40;96933.00;;;;5036132;28;20192;-60
2022/12/18 07:28:05;;;;;;;4.20;3.77;;;-6.00;95.10;-7.30;96935.00;;;;5035969;28;20196;-59
2022/12/18 07:30:33;;;;;;;4.73;3.53;;;-6.00;95.60;-7.20;96926.00;;;;5035803;28;20221;-60
2022/12/18 07:33:00;;;;;;;3.67;3.33;;;-5.90;95.50;-7.30;96928.00;;;;5036285;28;20269;-58
2022/12/18 07:35:27;;;;;;;5.37;3.60;;;-6.00;94.20;-7.20;96920.00;;;;5036049;28;20671;-58
2022/12/18 07:37:55;;;;;;;3.07;2.87;;;-5.90;94.60;-7.40;96926.00;;;;5035731;28;20194;-58
2022/12/18 07:40:22;;;;;;;3.43;2.43;;;-6.00;94.00;-7.50;96931.00;;;;5017943;28;20201;-59
2022/12/18 07:42:49;;;;;;;9.07;3.03;;;-6.20;93.60;-7.50;96930.00;;;;5019220;28;20200;-58
2022/12/18 07:45:16;;;;;;;4.97;3.63;;;-6.20;94.30;-7.50;96939.00;;;;5035827;28;20200;-58
2022/12/18 07:47:43;;;;;;;3.03;2.63;;;-6.20;94.30;-7.40;96937.00;;;;5035981;28;20193;-58
2022/12/18 07:50:10;;;;;;;1.80;1.70;;;-6.20;94.50;-7.40;96948.00;;;;5035799;28;20587;-60
2022/12/18 07:52:37;;;;;;;3.33;3.10;;;-6.20;94.70;-7.30;96947.00;;;;5036128;28;20271;-58
2022/12/18 07:55:07;;;;;;;4.57;3.00;;;-6.10;95.50;-7.20;96940.00;;;;5035791;28;20216;-58
2022/12/18 07:57:34;;;;;;;5.77;2.47;;;-6.00;96.30;-7.20;96946.00;;;;5035763;28;20192;-58
2022/12/18 08:00:01;;;;;;;2.20;2.10;;;-5.90;96.20;-7.10;96947.00;;;;5035326;28;20204;-57
2022/12/18 08:02:31;;;;;;;3.80;3.50;;;-5.80;95.80;-7.20;96947.00;;;;5034972;28;20201;-58
2022/12/18 08:04:59;;;;;;;3.83;3.43;;;-5.90;94.70;-7.10;96942.00;;;;5035852;28;20192;-58
2022/12/18 08:07:26;;;;;;;5.63;4.23;;;-5.80;95.30;-7.10;96937.00;;;;5035099;28;20228;-58
2022/12/18 08:09:53;;;;;;;4.03;3.37;;;-5.80;94.80;-7.00;96943.00;;;;5035130;28;20216;-59
2022/12/18 08:12:21;;;;;;;5.87;3.10;;;;;-6.90;96937.00;;;;5035212;28;20217;-60
2022/12/18 08:14:48;;;;;;;6.00;4.03;;;-5.70;94.20;-6.70;96938.00;;;;5035525;28;20200;-58
2022/12/18 08:17:15;;;;;;;2.67;2.43;;;-5.50;95.10;-6.70;96949.00;;;;5034989;28;20247;-58
2022/12/18 08:19:42;;;;;;;3.83;3.27;;;-5.40;94.50;-6.60;96935.00;;;;5017378;28;20660;-58
2022/12/18 08:22:09;;;;;;;7.07;4.00;;;-5.50;95.00;-6.60;96946.00;;;;5034976;28;20211;-58
2022/12/18 08:24:36;;;;;;;2.90;2.70;;;-5.40;94.10;-6.40;96947.00;;;;5017028;28;20208;-58
2022/12/18 08:27:04;;;;;;;4.73;3.83;;;-5.20;94.40;-6.20;96935.00;;;;5035556;28;20572;-59
2022/12/18 08:29:33;;;;;;;2.47;2.27;;;-5.00;94.20;-6.00;96939.00;;;;5034904;28;20224;-58
2022/12/18 08:32:00;;;;;;;2.97;2.77;;;-4.90;94.40;-5.80;96947.00;;;;5034644;28;20213;-59
2022/12/18 08:34:28;;;;;;;3.27;2.90;;;-4.70;94.00;-5.60;96937.00;;;;5035625;28;20189;-58
2022/12/18 08:36:55;;;;;;;3.80;3.50;;;-4.50;92.80;-5.50;96957.00;;;;5017027;28;20197;-58
2022/12/18 08:39:22;;;;;;;4.17;3.30;;;-4.40;91.60;-5.80;96937.00;;;;5034779;28;20200;-58
2022/12/18 08:44:39;;;;;;;2.50;2.40;;;-4.50;91.70;-5.50;96942.00;;;;5016485;28;20189;-58
2022/12/18 08:47:08;;;;;;;3.83;3.53;;;-4.30;91.80;-5.40;96931.00;;;;5016713;28;20193;-59
2022/12/18 08:49:36;;;;;;;4.53;4.13;;;-4.20;90.90;-5.50;96920.00;;;;5034779;28;20225;-58
2022/12/18 08:52:04;;;;;;;6.73;4.40;;;-4.30;89.50;-5.40;96922.00;;;;5034169;28;20710;-59
2022/12/18 08:54:32;;;;;;;5.97;4.10;;;-4.20;90.50;-5.20;96912.00;;;;5034717;28;20195;-58
2022/12/18 08:56:59;;;;;;;2.57;2.47;;;-4.10;91.20;-5.10;96912.00;;;;5016678;28;20197;-58
2022/12/18 08:59:31;;;;;;;4.33;3.30;;;-3.90;91.10;-5.10;96913.00;;;;5035014;28;20215;-58
2022/12/18 09:01:58;;;;;;;7.57;5.13;;;-3.90;90.30;-5.00;96916.00;;;;5034657;28;20223;-58
2022/12/18 09:04:27;;;;;;;4.27;3.97;;;-3.80;89.90;-4.60;96903.00;;;;5034126;28;20198;-58
2022/12/18 09:06:57;;;;;;;4.13;3.83;;;-3.50;89.40;-4.60;96916.00;;;;5034037;28;20194;-58
2022/12/18 09:09:24;;;;;;;15.13;6.17;;;-3.50;87.40;-4.60;96909.00;;;;5034364;28;20557;-59
2022/12/18 09:11:51;;;;;;;6.17;4.90;;;-3.40;87.50;-4.50;96911.00;;;;5033911;28;20277;-59
2022/12/18 09:14:18;;;;;;;3.83;3.47;;;-3.30;87.40;-4.40;96911.00;;;;5033179;28;20195;-59
2022/12/18 09:16:45;;;;;;;10.43;4.60;;;;;-4.50;96921.00;;;;5033895;28;20185;-58
2022/12/18 09:19:12;;;;;;;5.43;3.47;;;-3.30;84.70;-4.30;96904.00;;;;5033789;28;20190;-58
2022/12/18 09:21:41;;;;;;;3.47;3.27;;;-3.10;85.30;-4.20;96894.00;;;;5034255;28;20205;-59
2022/12/18 09:24:13;;;;;;;2.63;2.47;;;-3.10;85.70;-4.00;96906.00;;;;5033784;28;20200;-59
2022/12/18 09:26:41;;;;;;;4.17;3.77;;;-2.90;85.20;-4.10;96910.00;;;;5016682;28;20694;-58
2022/12/18 09:29:08;;;;;;;10.37;3.23;;;-2.90;84.00;-3.70;96920.00;;;;5033979;28;20238;-59
2022/12/18 09:31:37;;;;;;;8.80;3.80;;;-2.70;83.50;-3.70;96914.00;;;;5034376;28;20643;-59
2022/12/18 09:34:07;;;;;;;17.57;5.57;;;-2.60;82.00;-3.80;96903.00;;;;5033773;28;20199;-59
2022/12/18 09:36:34;;;;;;;4.47;3.53;;;-2.60;81.00;-3.90;96907.00;;;;5033763;28;20198;-59
2022/12/18 09:39:03;;;;;;;5.47;4.20;;;-2.70;81.70;-3.60;96900.00;;;;5015877;28;20192;-59
2022/12/18 09:41:47;;;;;;;3.40;3.03;;;-2.50;81.20;-3.70;96916.00;;;;5015995;28;20763;-58
2022/12/18 09:44:28;;;;;;;4.77;4.33;;;-2.60;80.20;-3.20;96914.00;;;;5033635;28;20267;-59
2022/12/18 09:47:15;;;;;;;5.17;4.13;;;-2.30;81.30;-3.30;96913.00;;;;5033628;28;20527;-58
2022/12/18 09:49:45;;;;;;;5.50;3.87;;;;;-3.50;96927.00;;;;5033915;28;20294;-59
2022/12/18 09:52:20;;;;;;;3.80;3.27;;;-2.30;75.40;-3.90;96914.00;;;;5033748;28;20233;-59
2022/12/18 09:54:56;;;;;;;4.03;3.73;;;-2.60;77.90;-3.80;96900.00;;;;5033302;28;20186;-58
2022/12/18 09:57:25;;;;;;;4.60;4.30;;;-2.70;79.70;-4.20;96921.00;;;;5033178;28;20644;-58
2022/12/18 09:59:59;;;;;;;3.70;3.33;;;-2.90;79.00;-4.30;96918.00;;;;5033885;28;20245;-59
2022/12/18 10:02:31;;;;;;;6.87;4.80;;;-3.10;83.50;-4.50;96917.00;;;;5033081;28;20708;-58
2022/12/18 10:05:12;;;;;;;3.30;3.00;;;-3.20;83.90;-4.50;96918.00;;;;5033324;28;20191;-58
2022/12/18 10:07:54;;;;;;;4.33;3.63;;;-3.30;83.10;-4.30;96911.00;;;;5033113;28;20737;-58
2022/12/18 10:10:38;;;;;;;2.13;2.03;;;-3.30;86.40;-4.00;96919.00;;;;5033400;28;20205;-59
2022/12/18 10:13:20;;;;;;;3.93;3.57;;;-3.10;85.40;-4.30;96916.00;;;;5033705;28;20232;-58
2022/12/18 10:16:09;;;;;;;6.73;3.40;;;-3.20;84.90;-4.30;96920.00;;;;5033326;28;20187;-59
2022/12/18 10:19:02;;;;;;;7.87;4.40;;;-3.10;85.60;-4.00;96919.00;;;;5033315;28;20181;-59
2022/12/18 10:21:40;;;;;;;2.80;2.60;;;-2.90;85.20;-4.30;96911.00;;;;5033299;28;20216;-59
2022/12/18 10:24:23;;;;;;;3.90;3.57;;;-3.10;85.80;-4.10;96914.00;;;;5015236;28;20183;-59
2022/12/18 10:26:56;;;;;;;4.13;2.70;;;-3.00;86.30;-4.20;96903.00;;;;5036555;28;20177;-59
2022/12/18 10:29:25;;;;;;;4.53;4.13;;;-3.20;89.10;-4.10;96917.00;;;;5037010;28;20642;-59
2022/12/18 10:31:53;;;;;;;5.67;4.63;;;-3.20;87.90;-3.90;96904.00;;;;5036749;28;20705;-60
2022/12/18 10:34:20;;;;;;;4.30;3.63;;;-2.90;86.50;-4.40;96908.00;;;;5037191;28;20201;-60
2022/12/18 10:36:49;;;;;;;9.83;3.90;;;-3.10;86.40;-4.40;96906.00;;;;5037179;28;20189;-60
2022/12/18 10:39:23;;;;;;;3.80;3.50;;;-3.20;87.30;-4.40;96913.00;;;;5037096;28;20647;-60
2022/12/18 10:42:12;;;;;;;5.23;4.30;;;-3.30;88.90;-4.00;96905.00;;;;5037396;28;20244;-59
2022/12/18 10:44:40;;;;;;;3.40;3.10;;;-3.00;89.50;-3.90;96897.00;;;;5036961;28;20204;-59
2022/12/18 10:47:16;;;;;;;6.27;4.73;;;-2.90;87.60;-3.70;96911.00;;;;5036969;28;20214;-60
2022/12/18 10:49:50;;;;;;;4.47;4.03;;;-2.70;86.40;-3.60;96917.00;;;;5036801;28;20205;-59
2022/12/18 10:52:22;;;;;;;4.40;4.03;;;-2.60;85.40;-3.40;96905.00;;;;5036490;28;20219;-60
2022/12/18 10:54:52;;;;;;;11.17;5.20;;;-2.40;85.60;-3.70;96900.00;;;;5036722;28;20602;-59
2022/12/18 10:57:35;;;;;;;4.30;3.83;;;-2.50;84.40;-3.00;96897.00;;;;5036374;28;20188;-59
2022/12/18 11:00:25;;;;;;;5.00;3.33;;;-2.20;85.50;-3.00;96902.00;;;;5036352;28;20529;-59
2022/12/18 11:02:52;;;;;;;9.00;4.10;;;-2.00;82.00;-2.50;96879.00;;;;5036544;28;20189;-59
2022/12/18 11:05:32;;;;;;;7.63;4.50;;;-1.60;80.40;-2.40;96898.00;;;;5036293;28;20186;-60
2022/12/18 11:08:01;;;;;;;3.07;2.87;;;-1.50;76.40;-2.60;96907.00;;;;5036774;28;20283;-60
2022/12/18 11:10:34;;;;;;;6.17;4.50;;;-1.50;76.90;-2.60;96902.00;;;;5036331;28;20222;-60
2022/12/18 11:13:18;;;;;;;7.40;3.97;;;-1.50;75.30;-2.60;96886.00;;;;5036433;28;20552;-60